ESGT/THN METAR and TAF weather

Enter ICAO airport designator
Station Type Date Time Source
ESGT METAR 2021/09/24 05:20 UTC NOAA

ESGT 240520Z AUTO 00000KT 9999 NCD 04/03 Q1002


Station Type Date Time Source
ESGT Decoded METAR 2021/09/24 05:20 UTC NOAA

Trollhattan Private , Sweden (ESGT) 58-19N 012-21E
Sep 24, 2021 - 01:20 AM EDT / 2021.09.24 0520 UTC
Wind: Calm:0
Visibility: greater than 7 mile(s):0
Temperature: 39 F (4 C)
Dew Point: 37 F (3 C)
Relative Humidity: 93%
Pressure (altimeter): 29.59 in. Hg (1002 hPa)
ob: ESGT 240520Z AUTO 00000KT 9999 NCD 04/03 Q1002
cycle: 5

Station Type Date Time Source
ESGT TAF 2016/08/12 05:58 UTC NOAA

TAF ESGT 120430Z 1205/1224 18007KT 9999 FEW030

Example: see airport list